sensor_id;sensor_type;location;lat;lon;timestamp;pressure;altitude;pressure_sealevel;temperature;humidity
48364;BME280;34170;54.364;18.582;2022-09-01T00:02:47;100953.69;;;10.97;100.00
48364;BME280;34170;54.364;18.582;2022-09-01T00:05:16;100951.84;;;10.98;100.00
48364;BME280;34170;54.364;18.582;2022-09-01T00:07:45;100952.63;;;10.88;100.00
48364;BME280;34170;54.364;18.582;2022-09-01T00:10:12;100954.16;;;10.81;100.00
48364;BME280;34170;54.364;18.582;2022-09-01T00:12:40;100963.41;;;10.88;100.00
48364;BME280;34170;54.364;18.582;2022-09-01T00:15:09;100957.06;;;11.11;100.00
48364;BME280;34170;54.364;18.582;2022-09-01T00:17:36;100952.06;;;11.06;100.00
48364;BME280;34170;54.364;18.582;2022-09-01T00:20:04;100954.50;;;11.09;100.00
48364;BME280;34170;54.364;18.582;2022-09-01T00:22:32;100954.28;;;11.01;100.00
48364;BME280;34170;54.364;18.582;2022-09-01T00:25:00;100956.84;;;11.23;100.00
48364;BME280;34170;54.364;18.582;2022-09-01T00:27:28;100948.50;;;11.05;100.00
48364;BME280;34170;54.364;18.582;2022-09-01T00:29:58;100953.44;;;11.00;100.00
48364;BME280;34170;54.364;18.582;2022-09-01T00:32:26;100947.50;;;10.85;100.00
48364;BME280;34170;54.364;18.582;2022-09-01T00:34:54;100951.59;;;11.01;100.00
48364;BME280;34170;54.364;18.582;2022-09-01T00:37:21;100950.03;;;10.98;100.00
48364;BME280;34170;54.364;18.582;2022-09-01T00:39:49;100966.78;;;11.02;100.00
48364;BME280;34170;54.364;18.582;2022-09-01T00:42:16;100966.09;;;11.10;100.00
48364;BME280;34170;54.364;18.582;2022-09-01T00:44:43;100966.88;;;11.21;100.00
48364;BME280;34170;54.364;18.582;2022-09-01T00:47:12;100971.63;;;11.39;100.00
48364;BME280;34170;54.364;18.582;2022-09-01T00:49:44;100979.56;;;11.71;100.00
48364;BME280;34170;54.364;18.582;2022-09-01T00:52:31;100972.47;;;11.91;100.00
48364;BME280;34170;54.364;18.582;2022-09-01T00:55:07;100964.97;;;11.95;100.00
48364;BME280;34170;54.364;18.582;2022-09-01T00:57:36;100985.38;;;11.97;100.00
48364;BME280;34170;54.364;18.582;2022-09-01T01:00:19;100976.78;;;12.13;100.00
48364;BME280;34170;54.364;18.582;2022-09-01T01:02:48;100982.31;;;12.12;100.00
48364;BME280;34170;54.364;18.582;2022-09-01T01:05:29;100969.38;;;12.06;100.00
48364;BME280;34170;54.364;18.582;2022-09-01T01:08:01;100974.34;;;12.00;100.00
48364;BME280;34170;54.364;18.582;2022-09-01T01:10:30;100961.78;;;11.90;100.00
48364;BME280;34170;54.364;18.582;2022-09-01T01:13:05;100964.09;;;11.94;100.00
48364;BME280;34170;54.364;18.582;2022-09-01T01:15:34;100955.25;;;11.82;100.00
48364;BME280;34170;54.364;18.582;2022-09-01T01:18:03;100952.94;;;11.78;100.00
48364;BME280;34170;54.364;18.582;2022-09-01T01:20:31;100946.41;;;11.71;100.00
48364;BME280;34170;54.364;18.582;2022-09-01T01:23:33;100947.81;;;11.75;100.00
48364;BME280;34170;54.364;18.582;2022-09-01T01:26:05;100951.66;;;11.72;100.00
48364;BME280;34170;54.364;18.582;2022-09-01T01:28:35;100947.81;;;11.65;100.00
48364;BME280;34170;54.364;18.582;2022-09-01T01:31:15;100948.50;;;11.57;100.00
48364;BME280;34170;54.364;18.582;2022-09-01T01:33:50;100945.22;;;11.54;100.00
48364;BME280;34170;54.364;18.582;2022-09-01T01:39:11;100940.56;;;11.66;100.00
48364;BME280;34170;54.364;18.582;2022-09-01T01:41:40;100945.38;;;11.62;100.00
48364;BME280;34170;54.364;18.582;2022-09-01T01:44:13;100946.13;;;11.74;100.00
48364;BME280;34170;54.364;18.582;2022-09-01T01:46:45;100947.56;;;11.78;100.00
48364;BME280;34170;54.364;18.582;2022-09-01T01:49:14;100948.38;;;11.69;100.00
48364;BME280;34170;54.364;18.582;2022-09-01T01:51:49;100944.56;;;11.71;100.00
48364;BME280;34170;54.364;18.582;2022-09-01T01:54:27;100938.59;;;11.68;100.00
48364;BME280;34170;54.364;18.582;2022-09-01T01:56:58;100943.97;;;11.68;100.00
48364;BME280;34170;54.364;18.582;2022-09-01T01:59:26;100940.88;;;11.72;100.00
48364;BME280;34170;54.364;18.582;2022-09-01T02:01:56;100946.03;;;11.85;100.00
48364;BME280;34170;54.364;18.582;2022-09-01T02:04:24;100945.75;;;11.88;100.00
48364;BME280;34170;54.364;18.582;2022-09-01T02:06:53;100947.44;;;11.89;100.00
48364;BME280;34170;54.364;18.582;2022-09-01T02:09:23;100941.56;;;11.95;100.00
48364;BME280;34170;54.364;18.582;2022-09-01T02:11:51;100933.78;;;12.02;100.00
48364;BME280;34170;54.364;18.582;2022-09-01T02:14:23;100939.28;;;12.00;100.00
48364;BME280;34170;54.364;18.582;2022-09-01T02:16:51;100926.88;;;11.88;100.00
48364;BME280;34170;54.364;18.582;2022-09-01T02:19:22;100928.69;;;11.78;100.00
48364;BME280;34170;54.364;18.582;2022-09-01T02:21:49;100927.09;;;11.66;100.00
48364;BME280;34170;54.364;18.582;2022-09-01T02:24:22;100933.19;;;11.68;100.00
48364;BME280;34170;54.364;18.582;2022-09-01T02:26:55;100925.41;;;11.64;100.00
48364;BME280;34170;54.364;18.582;2022-09-01T02:29:22;100924.78;;;11.51;100.00
48364;BME280;34170;54.364;18.582;2022-09-01T02:31:56;100922.78;;;11.53;100.00
48364;BME280;34170;54.364;18.582;2022-09-01T02:34:25;100914.00;;;11.51;100.00
48364;BME280;34170;54.364;18.582;2022-09-01T02:36:56;100920.22;;;11.42;100.00
48364;BME280;34170;54.364;18.582;2022-09-01T02:39:29;100925.72;;;11.40;100.00
48364;BME280;34170;54.364;18.582;2022-09-01T02:42:00;100919.38;;;11.51;100.00
48364;BME280;34170;54.364;18.582;2022-09-01T02:44:28;100917.53;;;11.52;100.00
48364;BME280;34170;54.364;18.582;2022-09-01T02:46:59;100923.81;;;11.62;100.00
48364;BME280;34170;54.364;18.582;2022-09-01T02:49:28;100924.53;;;11.64;100.00
48364;BME280;34170;54.364;18.582;2022-09-01T02:51:57;100912.47;;;11.58;100.00
48364;BME280;34170;54.364;18.582;2022-09-01T02:54:30;100924.41;;;11.66;100.00
48364;BME280;34170;54.364;18.582;2022-09-01T02:56:59;100916.66;;;11.82;100.00
48364;BME280;34170;54.364;18.582;2022-09-01T02:59:28;100918.16;;;11.65;100.00
48364;BME280;34170;54.364;18.582;2022-09-01T03:01:59;100915.88;;;11.60;100.00
48364;BME280;34170;54.364;18.582;2022-09-01T03:04:27;100915.34;;;11.76;100.00
48364;BME280;34170;54.364;18.582;2022-09-01T03:06:57;100917.28;;;12.05;100.00
48364;BME280;34170;54.364;18.582;2022-09-01T03:09:25;100916.66;;;11.82;100.00
48364;BME280;34170;54.364;18.582;2022-09-01T03:11:53;100909.84;;;11.78;100.00
48364;BME280;34170;54.364;18.582;2022-09-01T03:14:23;100918.75;;;11.69;100.00
48364;BME280;34170;54.364;18.582;2022-09-01T03:16:51;100916.31;;;11.66;100.00
48364;BME280;34170;54.364;18.582;2022-09-01T03:19:19;100922.41;;;11.68;100.00
48364;BME280;34170;54.364;18.582;2022-09-01T03:21:46;100929.94;;;11.95;100.00
48364;BME280;34170;54.364;18.582;2022-09-01T03:24:19;100917.56;;;11.92;100.00
48364;BME280;34170;54.364;18.582;2022-09-01T03:26:50;100927.63;;;11.90;100.00
48364;BME280;34170;54.364;18.582;2022-09-01T03:29:18;100917.38;;;11.84;100.00
48364;BME280;34170;54.364;18.582;2022-09-01T03:31:46;100927.38;;;11.93;100.00
48364;BME280;34170;54.364;18.582;2022-09-01T03:34:14;100918.72;;;11.99;100.00
48364;BME280;34170;54.364;18.582;2022-09-01T03:36:48;100912.88;;;11.94;100.00
48364;BME280;34170;54.364;18.582;2022-09-01T03:39:23;100918.84;;;11.98;100.00
48364;BME280;34170;54.364;18.582;2022-09-01T03:41:51;100919.53;;;11.90;100.00
48364;BME280;34170;54.364;18.582;2022-09-01T03:44:18;100924.09;;;11.99;100.00
48364;BME280;34170;54.364;18.582;2022-09-01T03:46:45;100920.44;;;12.00;100.00
48364;BME280;34170;54.364;18.582;2022-09-01T03:49:13;100920.88;;;12.06;100.00
48364;BME280;34170;54.364;18.582;2022-09-01T03:51:43;100912.78;;;12.06;100.00
48364;BME280;34170;54.364;18.582;2022-09-01T03:54:11;100916.03;;;12.09;100.00
48364;BME280;34170;54.364;18.582;2022-09-01T03:56:39;100915.03;;;12.10;100.00
48364;BME280;34170;54.364;18.582;2022-09-01T03:59:14;100921.72;;;12.06;100.00
48364;BME280;34170;54.364;18.582;2022-09-01T04:01:46;100917.72;;;12.00;100.00
48364;BME280;34170;54.364;18.582;2022-09-01T04:04:15;100918.44;;;12.02;100.00
48364;BME280;34170;54.364;18.582;2022-09-01T04:06:44;100926.22;;;11.96;100.00
48364;BME280;34170;54.364;18.582;2022-09-01T04:09:13;100925.38;;;12.05;100.00
48364;BME280;34170;54.364;18.582;2022-09-01T04:11:43;100924.53;;;12.05;100.00
48364;BME280;34170;54.364;18.582;2022-09-01T04:14:14;100914.72;;;12.04;100.00
48364;BME280;34170;54.364;18.582;2022-09-01T04:16:43;100914.91;;;12.12;100.00
48364;BME280;34170;54.364;18.582;2022-09-01T04:19:33;100922.28;;;12.19;100.00
48364;BME280;34170;54.364;18.582;2022-09-01T04:22:04;100914.06;;;12.21;100.00
48364;BME280;34170;54.364;18.582;2022-09-01T04:24:37;100920.16;;;12.23;100.00
48364;BME280;34170;54.364;18.582;2022-09-01T04:27:11;100923.84;;;12.22;100.00
48364;BME280;34170;54.364;18.582;2022-09-01T04:29:40;100927.69;;;12.49;100.00
48364;BME280;34170;54.364;18.582;2022-09-01T04:32:09;100920.31;;;12.51;100.00
48364;BME280;34170;54.364;18.582;2022-09-01T04:34:42;100925.69;;;12.41;100.00
48364;BME280;34170;54.364;18.582;2022-09-01T04:37:17;100927.81;;;12.37;100.00
48364;BME280;34170;54.364;18.582;2022-09-01T04:39:51;100913.78;;;12.34;100.00
48364;BME280;34170;54.364;18.582;2022-09-01T04:42:25;100919.72;;;12.37;100.00
48364;BME280;34170;54.364;18.582;2022-09-01T04:44:54;100918.91;;;12.47;100.00
48364;BME280;34170;54.364;18.582;2022-09-01T04:47:24;100918.47;;;12.61;100.00
48364;BME280;34170;54.364;18.582;2022-09-01T04:50:06;100919.19;;;12.63;100.00
48364;BME280;34170;54.364;18.582;2022-09-01T04:52:44;100925.44;;;12.73;100.00
48364;BME280;34170;54.364;18.582;2022-09-01T04:55:23;100929.19;;;13.00;100.00
48364;BME280;34170;54.364;18.582;2022-09-01T04:57:56;100922.28;;;12.88;100.00
48364;BME280;34170;54.364;18.582;2022-09-01T05:00:26;100924.25;;;12.86;100.00
48364;BME280;34170;54.364;18.582;2022-09-01T05:03:01;100927.69;;;12.68;100.00
48364;BME280;34170;54.364;18.582;2022-09-01T05:05:53;100930.97;;;12.72;100.00
48364;BME280;34170;54.364;18.582;2022-09-01T05:08:22;100935.88;;;12.96;100.00
48364;BME280;34170;54.364;18.582;2022-09-01T05:10:54;100922.53;;;13.04;100.00
48364;BME280;34170;54.364;18.582;2022-09-01T05:13:49;100932.91;;;12.99;100.00
48364;BME280;34170;54.364;18.582;2022-09-01T05:16:18;100919.97;;;12.93;100.00
48364;BME280;34170;54.364;18.582;2022-09-01T05:18:54;100931.03;;;13.09;100.00
48364;BME280;34170;54.364;18.582;2022-09-01T05:21:27;100933.97;;;13.26;100.00
48364;BME280;34170;54.364;18.582;2022-09-01T05:23:57;100930.19;;;13.56;100.00
48364;BME280;34170;54.364;18.582;2022-09-01T05:26:29;100933.59;;;13.86;100.00
48364;BME280;34170;54.364;18.582;2022-09-01T05:29:00;100937.38;;;14.57;100.00
48364;BME280;34170;54.364;18.582;2022-09-01T05:31:29;100926.16;;;14.70;100.00
48364;BME280;34170;54.364;18.582;2022-09-01T05:34:01;100945.63;;;14.55;100.00
48364;BME280;34170;54.364;18.582;2022-09-01T05:36:29;100931.56;;;14.34;100.00
48364;BME280;34170;54.364;18.582;2022-09-01T05:39:03;100937.66;;;14.36;100.00
48364;BME280;34170;54.364;18.582;2022-09-01T05:41:31;100939.13;;;14.58;100.00
48364;BME280;34170;54.364;18.582;2022-09-01T05:44:03;100946.56;;;14.82;100.00
48364;BME280;34170;54.364;18.582;2022-09-01T05:46:36;100947.34;;;14.92;100.00
48364;BME280;34170;54.364;18.582;2022-09-01T05:49:06;100943.00;;;15.25;99.93
48364;BME280;34170;54.364;18.582;2022-09-01T05:51:42;100936.31;;;15.72;97.53
48364;BME280;34170;54.364;18.582;2022-09-01T05:54:13;100951.13;;;16.78;90.85
48364;BME280;34170;54.364;18.582;2022-09-01T05:56:42;100945.94;;;18.74;80.77
48364;BME280;34170;54.364;18.582;2022-09-01T05:59:15;100953.94;;;18.99;70.48
48364;BME280;34170;54.364;18.582;2022-09-01T06:01:56;100954.72;;;18.38;72.59
48364;BME280;34170;54.364;18.582;2022-09-01T06:04:25;100958.56;;;22.37;58.16
48364;BME280;34170;54.364;18.582;2022-09-01T06:07:00;100943.63;;;25.87;46.66
48364;BME280;34170;54.364;18.582;2022-09-01T06:09:39;100945.72;;;24.16;46.21
48364;BME280;34170;54.364;18.582;2022-09-01T06:12:09;100956.13;;;25.72;45.80
48364;BME280;34170;54.364;18.582;2022-09-01T06:14:46;100949.94;;;27.80;39.16
48364;BME280;34170;54.364;18.582;2022-09-01T06:17:16;100943.50;;;27.39;38.58
48364;BME280;34170;54.364;18.582;2022-09-01T06:19:46;100942.16;;;27.65;36.46
48364;BME280;34170;54.364;18.582;2022-09-01T06:22:14;100944.13;;;29.70;33.74
48364;BME280;34170;54.364;18.582;2022-09-01T06:24:43;100958.28;;;31.79;30.37
48364;BME280;34170;54.364;18.582;2022-09-01T06:27:14;100951.34;;;32.81;25.99
48364;BME280;34170;54.364;18.582;2022-09-01T06:29:44;100963.44;;;32.08;28.36
48364;BME280;34170;54.364;18.582;2022-09-01T06:32:11;100968.00;;;31.71;27.52
48364;BME280;34170;54.364;18.582;2022-09-01T06:34:41;100955.31;;;28.27;33.01
48364;BME280;34170;54.364;18.582;2022-09-01T06:37:11;100957.19;;;25.52;37.94
48364;BME280;34170;54.364;18.582;2022-09-01T06:39:42;100946.63;;;24.03;41.53
48364;BME280;34170;54.364;18.582;2022-09-01T06:42:10;100943.63;;;22.53;45.71
48364;BME280;34170;54.364;18.582;2022-09-01T06:44:47;100943.31;;;21.09;49.99
48364;BME280;34170;54.364;18.582;2022-09-01T06:47:14;100947.78;;;19.35;56.42
48364;BME280;34170;54.364;18.582;2022-09-01T06:49:42;100947.50;;;19.30;57.67
48364;BME280;34170;54.364;18.582;2022-09-01T06:52:15;100947.84;;;22.69;49.76
48364;BME280;34170;54.364;18.582;2022-09-01T06:54:42;100948.69;;;24.85;40.81
48364;BME280;34170;54.364;18.582;2022-09-01T06:57:10;100954.75;;;25.44;40.29
48364;BME280;34170;54.364;18.582;2022-09-01T06:59:58;100960.47;;;26.65;37.13
48364;BME280;34170;54.364;18.582;2022-09-01T07:02:28;100962.84;;;26.13;37.99
48364;BME280;34170;54.364;18.582;2022-09-01T07:05:20;100954.91;;;25.49;38.70
48364;BME280;34170;54.364;18.582;2022-09-01T07:08:10;100955.63;;;24.24;41.15
48364;BME280;34170;54.364;18.582;2022-09-01T07:10:51;100959.84;;;24.20;41.14
48364;BME280;34170;54.364;18.582;2022-09-01T07:13:39;100955.28;;;24.07;41.70
48364;BME280;34170;54.364;18.582;2022-09-01T07:16:31;100959.69;;;24.46;40.01
48364;BME280;34170;54.364;18.582;2022-09-01T07:19:08;100961.16;;;23.45;43.72
48364;BME280;34170;54.364;18.582;2022-09-01T07:21:49;100962.66;;;23.21;43.42
48364;BME280;34170;54.364;18.582;2022-09-01T07:24:42;100959.91;;;23.34;42.78
48364;BME280;34170;54.364;18.582;2022-09-01T07:27:43;100961.00;;;25.51;38.52
48364;BME280;34170;54.364;18.582;2022-09-01T07:30:20;100961.66;;;24.01;40.28
48364;BME280;34170;54.364;18.582;2022-09-01T07:33:08;100973.09;;;26.96;35.48
48364;BME280;34170;54.364;18.582;2022-09-01T07:35:58;100967.25;;;28.74;30.75
48364;BME280;34170;54.364;18.582;2022-09-01T07:38:46;100968.22;;;27.10;35.04
48364;BME280;34170;54.364;18.582;2022-09-01T07:41:44;100980.00;;;29.76;29.59
48364;BME280;34170;54.364;18.582;2022-09-01T07:45:01;100981.50;;;31.15;27.50
48364;BME280;34170;54.364;18.582;2022-09-01T07:47:58;100973.41;;;28.18;31.82
48364;BME280;34170;54.364;18.582;2022-09-01T07:50:35;100971.25;;;25.19;37.04
48364;BME280;34170;54.364;18.582;2022-09-01T07:53:26;100963.44;;;21.93;43.59
48364;BME280;34170;54.364;18.582;2022-09-01T07:56:08;100967.88;;;20.81;48.24
48364;BME280;34170;54.364;18.582;2022-09-01T07:58:41;100979.47;;;20.83;49.86
48364;BME280;34170;54.364;18.582;2022-09-01T08:01:18;100985.03;;;25.19;39.71
48364;BME280;34170;54.364;18.582;2022-09-01T08:03:57;100988.00;;;28.71;32.92
48364;BME280;34170;54.364;18.582;2022-09-01T08:06:26;100997.56;;;28.97;30.17
48364;BME280;34170;54.364;18.582;2022-09-01T08:08:58;100999.38;;;30.20;28.32
48364;BME280;34170;54.364;18.582;2022-09-01T08:11:31;100986.00;;;32.17;25.79
48364;BME280;34170;54.364;18.582;2022-09-01T08:14:18;101000.38;;;31.98;25.77
48364;BME280;34170;54.364;18.582;2022-09-01T08:16:47;101001.00;;;32.16;23.60
48364;BME280;34170;54.364;18.582;2022-09-01T08:19:19;100991.88;;;28.87;27.63
48364;BME280;34170;54.364;18.582;2022-09-01T08:22:13;100993.28;;;30.68;26.08
48364;BME280;34170;54.364;18.582;2022-09-01T08:24:52;100994.31;;;30.62;26.04
48364;BME280;34170;54.364;18.582;2022-09-01T08:27:21;100994.78;;;28.80;29.44
48364;BME280;34170;54.364;18.582;2022-09-01T08:29:48;101003.28;;;29.07;29.12
48364;BME280;34170;54.364;18.582;2022-09-01T08:32:16;101004.41;;;28.20;29.54
48364;BME280;34170;54.364;18.582;2022-09-01T08:34:43;101004.06;;;26.98;30.62
48364;BME280;34170;54.364;18.582;2022-09-01T08:37:11;100998.59;;;27.57;29.12
48364;BME280;34170;54.364;18.582;2022-09-01T08:39:40;101002.41;;;28.90;27.04
48364;BME280;34170;54.364;18.582;2022-09-01T08:44:43;100996.66;;;27.23;30.17
48364;BME280;34170;54.364;18.582;2022-09-01T08:47:16;100983.97;;;24.11;35.20
48364;BME280;34170;54.364;18.582;2022-09-01T08:49:59;100985.94;;;22.37;39.83
48364;BME280;34170;54.364;18.582;2022-09-01T08:53:01;100989.59;;;22.57;40.59
48364;BME280;34170;54.364;18.582;2022-09-01T08:55:43;100987.81;;;25.12;35.57
48364;BME280;34170;54.364;18.582;2022-09-01T08:58:15;100997.31;;;26.03;33.29
48364;BME280;34170;54.364;18.582;2022-09-01T09:09:36;100991.25;;;23.92;34.87
48364;BME280;34170;54.364;18.582;2022-09-01T09:18:10;100987.75;;;24.68;33.43
48364;BME280;34170;54.364;18.582;2022-09-01T09:21:13;100986.28;;;24.59;36.58
48364;BME280;34170;54.364;18.582;2022-09-01T09:23:45;100992.72;;;21.08;46.97
48364;BME280;34170;54.364;18.582;2022-09-01T09:26:14;100988.25;;;19.61;51.25
48364;BME280;34170;54.364;18.582;2022-09-01T09:28:48;101002.84;;;19.15;54.33
48364;BME280;34170;54.364;18.582;2022-09-01T09:31:34;100983.41;;;19.86;51.79
48364;BME280;34170;54.364;18.582;2022-09-01T09:34:15;100997.72;;;19.73;51.91
48364;BME280;34170;54.364;18.582;2022-09-01T09:36:44;100987.75;;;19.28;53.13
48364;BME280;34170;54.364;18.582;2022-09-01T09:39:21;100992.50;;;19.63;50.81
48364;BME280;34170;54.364;18.582;2022-09-01T09:42:05;100981.91;;;19.16;49.41
48364;BME280;34170;54.364;18.582;2022-09-01T09:44:53;100991.38;;;20.75;47.42
48364;BME280;34170;54.364;18.582;2022-09-01T09:47:40;100992.09;;;20.48;47.87
48364;BME280;34170;54.364;18.582;2022-09-01T09:52:48;100992.91;;;18.84;54.98
48364;BME280;34170;54.364;18.582;2022-09-01T09:55:23;100991.16;;;18.06;58.99
48364;BME280;34170;54.364;18.582;2022-09-01T09:57:57;100992.66;;;17.69;61.77
48364;BME280;34170;54.364;18.582;2022-09-01T10:00:32;100993.66;;;17.60;63.18
48364;BME280;34170;54.364;18.582;2022-09-01T10:03:06;100998.31;;;17.34;67.53
48364;BME280;34170;54.364;18.582;2022-09-01T10:05:45;100998.47;;;17.49;67.85
48364;BME280;34170;54.364;18.582;2022-09-01T10:10:54;101015.59;;;17.66;71.23
48364;BME280;34170;54.364;18.582;2022-09-01T10:13:26;101025.50;;;17.18;74.46
48364;BME280;34170;54.364;18.582;2022-09-01T10:16:02;101006.47;;;17.34;74.30
48364;BME280;34170;54.364;18.582;2022-09-01T10:18:40;100994.59;;;17.27;74.28
48364;BME280;34170;54.364;18.582;2022-09-01T10:21:15;101003.59;;;17.28;71.82
48364;BME280;34170;54.364;18.582;2022-09-01T10:23:43;100988.66;;;17.32;73.37
48364;BME280;34170;54.364;18.582;2022-09-01T10:26:24;100998.25;;;17.59;74.37
48364;BME280;34170;54.364;18.582;2022-09-01T10:31:33;100995.88;;;18.43;70.38
48364;BME280;34170;54.364;18.582;2022-09-01T10:34:03;101004.47;;;19.77;65.92
48364;BME280;34170;54.364;18.582;2022-09-01T10:36:33;101008.34;;;22.05;59.68
48364;BME280;34170;54.364;18.582;2022-09-01T10:39:03;101001.13;;;24.06;51.48
48364;BME280;34170;54.364;18.582;2022-09-01T10:44:21;101003.41;;;25.18;45.55
48364;BME280;34170;54.364;18.582;2022-09-01T10:46:50;101000.50;;;25.82;42.06
48364;BME280;34170;54.364;18.582;2022-09-01T10:49:23;100994.94;;;25.45;43.59
48364;BME280;34170;54.364;18.582;2022-09-01T10:55:19;101000.78;;;23.63;44.21
48364;BME280;34170;54.364;18.582;2022-09-01T11:00:49;101014.31;;;22.77;42.75
48364;BME280;34170;54.364;18.582;2022-09-01T11:03:55;101010.59;;;22.37;43.86
48364;BME280;34170;54.364;18.582;2022-09-01T11:14:50;101005.22;;;22.15;43.05
48364;BME280;34170;54.364;18.582;2022-09-01T11:17:23;101013.56;;;21.37;45.58
48364;BME280;34170;54.364;18.582;2022-09-01T11:22:45;101005.59;;;19.15;48.28
48364;BME280;34170;54.364;18.582;2022-09-01T11:25:47;101005.81;;;18.59;44.91
48364;BME280;34170;54.364;18.582;2022-09-01T11:28:38;100999.38;;;18.29;50.10
48364;BME280;34170;54.364;18.582;2022-09-01T11:33:49;100998.38;;;18.22;50.12
48364;BME280;34170;54.364;18.582;2022-09-01T11:36:23;100996.63;;;18.37;52.06
48364;BME280;34170;54.364;18.582;2022-09-01T11:44:29;101004.16;;;17.87;53.27
48364;BME280;34170;54.364;18.582;2022-09-01T11:47:05;100988.50;;;17.89;54.51
48364;BME280;34170;54.364;18.582;2022-09-01T11:49:47;100998.94;;;18.17;54.66
48364;BME280;34170;54.364;18.582;2022-09-01T11:52:17;101004.81;;;18.29;54.34
48364;BME280;34170;54.364;18.582;2022-09-01T11:54:45;101003.63;;;18.32;54.15
48364;BME280;34170;54.364;18.582;2022-09-01T11:57:36;101002.34;;;18.11;54.13
48364;BME280;34170;54.364;18.582;2022-09-01T12:00:10;101009.59;;;17.79;57.10
48364;BME280;34170;54.364;18.582;2022-09-01T12:02:49;101009.81;;;17.69;57.83
48364;BME280;34170;54.364;18.582;2022-09-01T12:05:25;101006.31;;;17.28;59.31
48364;BME280;34170;54.364;18.582;2022-09-01T12:07:53;101009.56;;;17.07;60.73
48364;BME280;34170;54.364;18.582;2022-09-01T12:10:36;101005.13;;;16.89;62.25
48364;BME280;34170;54.364;18.582;2022-09-01T12:13:22;100996.47;;;17.02;63.25
48364;BME280;34170;54.364;18.582;2022-09-01T12:15:59;101007.19;;;17.12;64.44
48364;BME280;34170;54.364;18.582;2022-09-01T12:18:47;101007.84;;;17.30;64.96
48364;BME280;34170;54.364;18.582;2022-09-01T12:21:27;100999.31;;;17.50;63.53
48364;BME280;34170;54.364;18.582;2022-09-01T12:24:18;101011.72;;;17.36;63.74
48364;BME280;34170;54.364;18.582;2022-09-01T12:26:49;101004.59;;;17.19;63.91
48364;BME280;34170;54.364;18.582;2022-09-01T12:29:17;101000.53;;;17.14;63.52
48364;BME280;34170;54.364;18.582;2022-09-01T12:31:47;101017.38;;;17.02;62.96
48364;BME280;34170;54.364;18.582;2022-09-01T12:39:43;101013.28;;;17.06;61.49
48364;BME280;34170;54.364;18.582;2022-09-01T12:45:03;101018.66;;;16.81;58.09
48364;BME280;34170;54.364;18.582;2022-09-01T12:52:57;101005.56;;;16.44;60.51
48364;BME280;34170;54.364;18.582;2022-09-01T12:55:31;101007.63;;;16.58;59.91
48364;BME280;34170;54.364;18.582;2022-09-01T12:58:19;101011.50;;;16.55;59.29
48364;BME280;34170;54.364;18.582;2022-09-01T13:03:24;101014.41;;;16.54;60.84
48364;BME280;34170;54.364;18.582;2022-09-01T13:05:56;101015.78;;;16.58;60.88
48364;BME280;34170;54.364;18.582;2022-09-01T13:08:27;101018.63;;;16.48;60.55
48364;BME280;34170;54.364;18.582;2022-09-01T13:11:01;100999.84;;;16.71;63.62
48364;BME280;34170;54.364;18.582;2022-09-01T13:13:29;101004.06;;;16.57;62.69
48364;BME280;34170;54.364;18.582;2022-09-01T13:15:58;101021.75;;;16.78;63.71
48364;BME280;34170;54.364;18.582;2022-09-01T13:18:41;101009.50;;;16.74;63.38
48364;BME280;34170;54.364;18.582;2022-09-01T13:21:30;101016.34;;;16.94;63.37
48364;BME280;34170;54.364;18.582;2022-09-01T13:23:58;101017.22;;;16.87;62.47
48364;BME280;34170;54.364;18.582;2022-09-01T13:26:25;101009.03;;;16.95;62.24
48364;BME280;34170;54.364;18.582;2022-09-01T13:28:57;101017.88;;;16.97;62.26
48364;BME280;34170;54.364;18.582;2022-09-01T13:31:25;101008.19;;;16.86;61.79
48364;BME280;34170;54.364;18.582;2022-09-01T13:33:57;101006.47;;;16.69;62.51
48364;BME280;34170;54.364;18.582;2022-09-01T13:36:45;101015.44;;;16.53;61.99
48364;BME280;34170;54.364;18.582;2022-09-01T13:39:18;101013.91;;;16.67;62.09
48364;BME280;34170;54.364;18.582;2022-09-01T13:41:47;101011.91;;;16.69;61.86
48364;BME280;34170;54.364;18.582;2022-09-01T13:44:15;101021.88;;;16.68;61.46
48364;BME280;34170;54.364;18.582;2022-09-01T13:46:45;101011.03;;;16.68;60.09
48364;BME280;34170;54.364;18.582;2022-09-01T13:49:32;101008.84;;;16.80;60.10
48364;BME280;34170;54.364;18.582;2022-09-01T13:52:09;101024.69;;;16.85;60.80
48364;BME280;34170;54.364;18.582;2022-09-01T13:54:37;101003.44;;;16.96;60.52
48364;BME280;34170;54.364;18.582;2022-09-01T13:57:04;101011.72;;;16.78;58.93
48364;BME280;34170;54.364;18.582;2022-09-01T13:59:32;100997.97;;;16.64;61.15
48364;BME280;34170;54.364;18.582;2022-09-01T14:01:59;101013.59;;;16.62;60.21
48364;BME280;34170;54.364;18.582;2022-09-01T14:04:27;101009.16;;;16.61;61.49
48364;BME280;34170;54.364;18.582;2022-09-01T14:06:55;101002.69;;;16.53;61.79
48364;BME280;34170;54.364;18.582;2022-09-01T14:09:25;101023.72;;;16.59;61.90
48364;BME280;34170;54.364;18.582;2022-09-01T14:11:53;101024.78;;;16.58;60.48
48364;BME280;34170;54.364;18.582;2022-09-01T14:14:21;101010.88;;;16.78;62.19
48364;BME280;34170;54.364;18.582;2022-09-01T14:16:49;101008.88;;;16.88;59.75
48364;BME280;34170;54.364;18.582;2022-09-01T14:19:17;101006.09;;;16.72;58.26
48364;BME280;34170;54.364;18.582;2022-09-01T14:21:44;101011.56;;;16.80;58.74
48364;BME280;34170;54.364;18.582;2022-09-01T14:24:14;101014.94;;;16.82;58.59